createdAt,value
2023-01-27T00:04:24.613Z,86.85
2023-01-27T00:09:26.166Z,87.20
2023-01-27T00:14:27.848Z,86.62
2023-01-27T00:19:29.447Z,86.28
2023-01-27T00:24:36.953Z,86.31
2023-01-27T00:29:39.805Z,86.31
2023-01-27T00:34:41.795Z,85.67
2023-01-27T00:39:43.370Z,86.24
2023-01-27T00:45:04.906Z,86.75
2023-01-27T00:50:07.229Z,85.70
2023-01-27T00:55:15.313Z,85.31
2023-01-27T01:00:18.526Z,85.32
2023-01-27T01:05:20.081Z,85.74
2023-01-27T01:10:21.655Z,84.85
2023-01-27T01:15:23.225Z,84.92
2023-01-27T01:20:25.335Z,84.94
2023-01-27T01:25:26.945Z,85.22
2023-01-27T01:30:28.875Z,85.46
2023-01-27T01:35:30.712Z,85.23
2023-01-27T01:40:33.381Z,84.29
2023-01-27T01:45:36.420Z,83.82
2023-01-27T01:50:39.182Z,83.50
2023-01-27T01:55:40.857Z,83.29
2023-01-27T02:00:42.516Z,82.93
2023-01-27T02:05:45.452Z,83.58
2023-01-27T02:10:47.164Z,83.05
2023-01-27T02:15:50.626Z,83.40
2023-01-27T02:20:54.298Z,82.87
2023-01-27T02:26:00.668Z,83.24
2023-01-27T02:31:02.579Z,84.55
2023-01-27T02:36:08.378Z,84.65
2023-01-27T02:41:15.975Z,85.48
2023-01-27T02:46:17.870Z,84.82
2023-01-27T02:51:19.872Z,85.28
2023-01-27T02:56:22.241Z,86.01
2023-01-27T03:01:25.176Z,85.72
2023-01-27T03:06:27.057Z,86.30
2023-01-27T03:11:47.010Z,87.29
2023-01-27T03:17:07.396Z,86.50
2023-01-27T03:22:09.086Z,87.33
2023-01-27T03:27:11.849Z,86.79
2023-01-27T03:32:46.611Z,86.84
2023-01-27T03:38:31.210Z,86.62
2023-01-27T03:43:51.538Z,88.13
2023-01-27T03:48:55.410Z,88.15
2023-01-27T03:53:56.990Z,88.55
2023-01-27T03:58:58.768Z,89.00
2023-01-27T04:04:18.868Z,89.34
2023-01-27T04:09:26.395Z,89.65
2023-01-27T04:14:39.185Z,89.26
2023-01-27T04:19:41.081Z,88.92
2023-01-27T04:24:42.836Z,89.18
2023-01-27T04:29:44.403Z,89.04
2023-01-27T04:34:45.940Z,89.23
2023-01-27T04:39:47.710Z,89.26
2023-01-27T04:44:49.389Z,88.53
2023-01-27T04:49:50.954Z,88.41
2023-01-27T04:54:52.579Z,88.69
2023-01-27T04:59:54.170Z,87.87
2023-01-27T05:04:55.710Z,88.72
2023-01-27T05:09:57.311Z,89.24
2023-01-27T05:14:59.235Z,89.73
2023-01-27T05:20:00.844Z,88.95
2023-01-27T05:25:02.436Z,90.02
2023-01-27T05:30:04.869Z,88.40
2023-01-27T05:35:07.045Z,89.22
2023-01-27T05:40:10.878Z,88.86
2023-01-27T05:45:13.070Z,89.15
2023-01-27T05:50:15.078Z,88.68
2023-01-27T05:55:16.874Z,90.61
2023-01-27T06:00:19.196Z,89.41
2023-01-27T06:05:20.815Z,89.83
2023-01-27T06:10:22.377Z,90.31
2023-01-27T06:15:23.973Z,89.56
2023-01-27T06:20:25.642Z,89.49
2023-01-27T06:25:27.464Z,89.00
2023-01-27T06:30:29.192Z,88.90
2023-01-27T06:35:31.276Z,88.90
2023-01-27T06:40:33.477Z,90.15
2023-01-27T06:45:35.030Z,89.19
2023-01-27T06:50:37.123Z,88.68
2023-01-27T06:55:41.680Z,89.09
2023-01-27T07:00:43.570Z,88.53
2023-01-27T07:05:45.186Z,87.86
2023-01-27T07:10:46.790Z,87.62
2023-01-27T07:15:54.014Z,87.08
2023-01-27T07:20:55.621Z,85.96
2023-01-27T07:25:58.772Z,85.50
2023-01-27T07:31:02.693Z,86.27
2023-01-27T07:36:04.453Z,87.67
2023-01-27T07:41:06.826Z,88.05
2023-01-27T07:46:08.650Z,88.11
2023-01-27T07:51:14.056Z,88.95
2023-01-27T07:56:15.672Z,88.41
2023-01-27T08:01:17.400Z,88.97
2023-01-27T08:06:18.997Z,87.93
2023-01-27T08:11:20.603Z,89.01
2023-01-27T08:16:22.240Z,89.07
2023-01-27T08:21:25.216Z,88.72
2023-01-27T08:26:27.301Z,88.94
2023-01-27T08:31:28.953Z,87.42
2023-01-27T08:36:30.614Z,87.16
2023-01-27T08:41:32.237Z,86.79
2023-01-27T08:46:33.910Z,85.73
2023-01-27T08:51:35.501Z,85.68
2023-01-27T08:56:37.069Z,85.53
2023-01-27T09:01:38.712Z,85.65
2023-01-27T09:06:40.355Z,85.90
2023-01-27T09:11:44.234Z,85.88
2023-01-27T09:16:45.803Z,86.63
2023-01-27T09:21:47.402Z,86.11
2023-01-27T09:26:49.157Z,86.03
2023-01-27T09:31:50.766Z,86.22
2023-01-27T09:36:55.957Z,85.28
2023-01-27T09:42:09.431Z,85.51
2023-01-27T09:47:23.759Z,85.13
2023-01-27T09:52:55.199Z,85.24
2023-01-27T09:58:05.943Z,84.32
2023-01-27T10:03:44.933Z,84.42
2023-01-27T10:08:50.540Z,84.29
2023-01-27T10:14:03.493Z,84.71
2023-01-27T10:19:14.256Z,85.17
2023-01-27T10:24:28.017Z,85.21
2023-01-27T10:29:47.560Z,86.49
2023-01-27T10:34:54.794Z,86.95
2023-01-27T10:40:14.536Z,87.31
2023-01-27T10:45:25.282Z,87.39
2023-01-27T10:50:50.660Z,87.64
2023-01-27T10:56:15.869Z,88.79
2023-01-27T11:01:23.036Z,88.33
2023-01-27T11:06:28.923Z,88.50
2023-01-27T11:11:46.272Z,90.56
2023-01-27T11:17:17.909Z,90.35
2023-01-27T11:22:35.718Z,90.36
2023-01-27T11:27:46.350Z,90.54
2023-01-27T11:32:55.669Z,90.34
2023-01-27T11:38:09.908Z,89.45
2023-01-27T11:43:19.430Z,89.36
2023-01-27T11:48:23.337Z,88.79
2023-01-27T11:53:36.787Z,88.23
2023-01-27T11:58:47.713Z,88.51
2023-01-27T12:04:07.793Z,88.69
2023-01-27T12:09:30.527Z,89.00
2023-01-27T12:14:32.165Z,89.31
2023-01-27T12:19:40.722Z,88.90
2023-01-27T12:24:48.495Z,88.49
2023-01-27T12:30:03.952Z,88.33
2023-01-27T12:35:06.304Z,87.70
2023-01-27T12:40:16.103Z,87.68
2023-01-27T12:45:22.523Z,87.97
2023-01-27T12:50:27.860Z,88.02
2023-01-27T12:55:32.497Z,88.39
2023-01-27T13:00:34.520Z,88.00
2023-01-27T13:05:38.289Z,88.55
2023-01-27T13:10:39.922Z,87.86
2023-01-27T13:15:51.993Z,87.76
2023-01-27T13:20:57.578Z,88.61
2023-01-27T13:26:12.738Z,88.81
2023-01-27T13:31:43.060Z,89.60
2023-01-27T13:36:56.284Z,90.30
2023-01-27T13:42:16.191Z,90.01
2023-01-27T13:47:24.633Z,89.41
2023-01-27T13:52:26.506Z,88.04
2023-01-27T13:57:39.940Z,89.24
2023-01-27T14:03:13.725Z,88.34
2023-01-27T14:08:41.256Z,88.53
2023-01-27T14:14:03.069Z,88.57
2023-01-27T14:19:30.768Z,88.23
2023-01-27T14:24:44.696Z,88.80
2023-01-27T14:30:10.047Z,89.40
2023-01-27T14:35:32.916Z,88.46
2023-01-27T14:40:57.019Z,90.02
2023-01-27T14:46:15.401Z,89.62
2023-01-27T14:52:25.072Z,90.05
2023-01-27T14:57:51.526Z,90.67
2023-01-27T15:03:12.264Z,90.18
2023-01-27T15:08:22.699Z,90.76
2023-01-27T15:14:05.842Z,91.01
2023-01-27T15:19:27.610Z,91.59
2023-01-27T15:24:54.844Z,91.69
2023-01-27T15:30:07.954Z,91.75
2023-01-27T15:35:31.217Z,91.62
2023-01-27T15:41:11.680Z,91.92
2023-01-27T15:46:25.217Z,92.12
2023-01-27T15:51:28.118Z,92.43
2023-01-27T15:56:43.196Z,92.29
2023-01-27T16:01:47.613Z,92.32
2023-01-27T16:06:52.052Z,92.53
2023-01-27T16:12:23.802Z,93.12
2023-01-27T16:17:25.815Z,92.51
2023-01-27T16:22:28.739Z,92.67
2023-01-27T16:27:51.302Z,93.13
2023-01-27T16:33:06.556Z,93.43
2023-01-27T16:38:16.447Z,93.99
2023-01-27T16:43:20.492Z,94.32
2023-01-27T16:48:44.613Z,93.73
2023-01-27T16:53:52.570Z,93.47
2023-01-27T16:59:10.280Z,93.13
2023-01-27T17:04:20.614Z,90.94
2023-01-27T17:09:25.457Z,89.29
2023-01-27T17:14:35.534Z,87.80
2023-01-27T17:19:37.452Z,86.77
2023-01-27T17:24:50.106Z,85.47
2023-01-27T17:29:55.462Z,85.18
2023-01-27T17:34:59.820Z,84.08
2023-01-27T17:40:03.633Z,83.62
2023-01-27T17:45:28.450Z,83.23
2023-01-27T17:50:38.047Z,84.24
2023-01-27T17:55:39.886Z,84.87
2023-01-27T18:00:43.578Z,84.02
2023-01-27T18:05:46.220Z,83.95
2023-01-27T18:10:47.850Z,84.08
2023-01-27T18:16:00.108Z,84.35
2023-01-27T18:21:04.530Z,83.88
2023-01-27T18:26:15.159Z,84.31
2023-01-27T18:31:31.151Z,84.11
2023-01-27T18:36:35.617Z,85.09
2023-01-27T18:41:45.985Z,85.30
2023-01-27T18:46:47.619Z,85.07
2023-01-27T18:51:49.300Z,84.55
2023-01-27T18:56:50.961Z,84.91
2023-01-27T19:01:52.590Z,86.30
2023-01-27T19:06:54.187Z,86.60
2023-01-27T19:11:56.743Z,86.90
2023-01-27T19:16:58.469Z,87.23
2023-01-27T19:22:00.119Z,85.94
2023-01-27T19:27:03.988Z,86.44
2023-01-27T19:32:06.100Z,87.74
2023-01-27T19:37:16.840Z,86.86
2023-01-27T19:42:18.454Z,86.53
2023-01-27T19:47:20.040Z,86.66
2023-01-27T19:52:21.580Z,86.86
2023-01-27T19:57:23.182Z,87.56
2023-01-27T20:02:24.836Z,87.64
2023-01-27T20:07:26.439Z,87.51
2023-01-27T20:12:28.071Z,86.79
2023-01-27T20:17:29.661Z,86.17
2023-01-27T20:22:31.267Z,86.22
2023-01-27T20:27:32.898Z,85.70
2023-01-27T20:32:34.493Z,85.33
2023-01-27T20:37:36.083Z,86.63
2023-01-27T20:42:37.797Z,86.13
2023-01-27T20:47:39.493Z,86.04
2023-01-27T20:52:41.026Z,86.79
2023-01-27T20:57:42.620Z,86.26
2023-01-27T21:02:44.237Z,85.69
2023-01-27T21:07:45.839Z,86.71
2023-01-27T21:12:47.396Z,86.49
2023-01-27T21:17:49.963Z,85.42
2023-01-27T21:22:51.752Z,86.51
2023-01-27T21:27:53.859Z,87.66
2023-01-27T21:32:55.871Z,85.49
2023-01-27T21:37:57.656Z,85.84
2023-01-27T21:43:17.819Z,85.86
2023-01-27T21:48:19.434Z,85.27
2023-01-27T21:53:21.061Z,85.61
2023-01-27T21:58:22.866Z,86.88
2023-01-27T22:03:24.422Z,86.83
2023-01-27T22:08:26.095Z,87.14
2023-01-27T22:13:27.658Z,87.48
2023-01-27T22:18:29.733Z,87.37
2023-01-27T22:23:31.401Z,88.22
2023-01-27T22:28:33.058Z,88.01
2023-01-27T22:33:35.519Z,87.60
2023-01-27T22:38:38.759Z,87.78
2023-01-27T22:43:40.414Z,88.50
2023-01-27T22:48:42.029Z,88.71
2023-01-27T22:53:43.753Z,88.34
2023-01-27T22:58:45.494Z,88.81
2023-01-27T23:03:47.151Z,89.13
2023-01-27T23:08:48.777Z,89.48
2023-01-27T23:13:50.383Z,91.00
2023-01-27T23:18:52.035Z,91.45
2023-01-27T23:23:54.092Z,91.75
2023-01-27T23:28:55.726Z,93.00
2023-01-27T23:33:57.253Z,93.62
2023-01-27T23:38:58.880Z,93.41
2023-01-27T23:44:00.450Z,93.31
2023-01-27T23:49:02.078Z,92.90
2023-01-27T23:54:03.898Z,92.97
2023-01-27T23:59:05.498Z,91.82
